Active alerts


No alerts


weather webcam more information weather webcam


Thunder radar more information blitzortung!


Rain radar more information rain snow radar


Visit our other weather sites:

Template documentation
and downloads

And another site


Nearby METAR Reports

   
EBBR - Brussels International Airport, Belgium
Distance from station: W 9 mi
Updated: Oct 21 2018 11:20 pm
Light Drizzle, Overcast  
Light Drizzle, Overcast  
   Wind: NNW 5.8 mph
Wind: NNW 5.8 mph
Temperature: 53.6°F
Dew Point: 53.6°F
Humidity: 100%
Barometer: 30.36 inHg
Clouds: Overcast
Visibility: 1 mi
Cloud details: Mostly Cloudy 300 ft,
Overcast 500 ft
EBBR 220420Z 33005KT 1300 R25L/1800D R25R/P2000N R01/P2000N -DZ BKN003 OVC005 12/12 Q1028 NOSIG
EBBE - Beauvechain (Bevekom), Belgium
Distance from station: SSE 10 mi
Updated: Oct 21 2018 11:25 pm
Mostly Cloudy  
Mostly Cloudy  
   Wind: WNW 3.5 mph
Wind: WNW 3.5 mph
Temperature: 50°F
Wind Chill: 48.2°F
Dew Point: 46.4°F
Humidity: 88%
Barometer: 30.36 inHg
Clouds: Mostly Cloudy
Visibility: 4 mi
Cloud details: Few Clouds 500 ft,
Partly Cloudy 900 ft,
Mostly Cloudy 2200 ft
EBBE 220425Z 30003KT 7000 FEW005 SCT009 BKN022 10/08 Q1028 GRN GRN TEMPO YLO
EBDT - Schaffen, Belgium
Distance from station: ENE 18 mi
Updated: Oct 21 2018 11:36 pm
Mist, Overcast  
Mist, Overcast  
   Wind: NNW 5.8 mph
Wind: NNW 5.8 mph
Temperature: 51.8°F
Dew Point: 50°F
Humidity: 94%
Barometer: 30.36 inHg
Clouds: Overcast
Visibility: 3 mi
Cloud details: Partly Cloudy 600 ft,
Mostly Cloudy 1300 ft,
Overcast 2200 ft
EBDT 220436Z AUTO 33005KT 4400 BR SCT006/// BKN013/// OVC022/// 11/10 Q1028 YLO
EBAW - Antwerp/Deurne, Belgium
Distance from station: NNW 23 mi
Updated: Oct 21 2018 11:20 pm
Overcast  
Overcast  
   Wind: North 10.4 mph
Wind: North 10.4 mph
Temperature: 57.2°F
Dew Point: 53.6°F
Humidity: 88%
Barometer: 30.36 inHg
Clouds: Overcast
Visibility: 3 mi
Cloud details: Partly Cloudy 300 ft,
Mostly Cloudy 400 ft,
Overcast 600 ft
EBAW 220420Z AUTO 36009KT 340V040 5000 // SCT003/// BKN004/// OVC006/// 14/12 Q1028
EBCI - Charleroi/Gosselies, Belgium
Distance from station: SSW 32 mi
Updated: Oct 21 2018 11:20 pm
Mostly Cloudy  
Mostly Cloudy  
   Wind: NNW 3.5 mph
Wind: NNW 3.5 mph
Temperature: 51.8°F
Dew Point: 46.4°F
Humidity: 82%
Barometer: 30.36 inHg
Clouds: Mostly Cloudy
Visibility: 4 mi
Cloud details: Few Clouds 1200 ft,
Partly Cloudy 1900 ft,
Mostly Cloudy 2300 ft
EBCI 220420Z 33003KT 300V360 6000 FEW012 SCT019 BKN023 11/08 Q1028 BECMG 1200 -DZ BKN003
EBLG - Bierset/Liege, Belgium
Distance from station: ESE 38 mi
Updated: Oct 21 2018 11:20 pm
Mostly Cloudy  
Mostly Cloudy  
   Wind: SW 2.3 mph
Wind: SW 2.3 mph
Temperature: 48.2°F
Dew Point: 42.8°F
Humidity: 82%
Barometer: 30.33 inHg
Clouds: Mostly Cloudy
Visibility: 5 mi
Cloud details: Mostly Cloudy 1900 ft
EBLG 220420Z 23002KT 8000 BKN019 09/06 Q1027 TEMPO 5000 BR

Script developed by  Saratoga-weather.org Adapted for the template by  Weerstation Leuven

You find our weather info also at:

Weather Underground

Midwestern Weather Network

Citizen Weather Observer Program (CWOP)

HAMweather, WeatherForYou, PWS Weather

Equipment we use:

Weather-station
Davis VP2

Weather-program
Cumulus

Davis VP2

Cumulus